sensor_id;sensor_type;location;lat;lon;timestamp;P1;durP1;ratioP1;P2;durP2;ratioP2
17169;SDS011;8700;48.222;16.342;2023-03-01T00:08:30;38.73;;;32.20;;
17169;SDS011;8700;48.222;16.342;2023-03-01T00:11:52;43.63;;;32.77;;
17169;SDS011;8700;48.222;16.342;2023-03-01T00:15:14;37.93;;;32.10;;
17169;SDS011;8700;48.222;16.342;2023-03-01T00:18:35;39.80;;;32.40;;
17169;SDS011;8700;48.222;16.342;2023-03-01T00:21:56;36.97;;;32.10;;
17169;SDS011;8700;48.222;16.342;2023-03-01T00:25:19;39.73;;;31.90;;
17169;SDS011;8700;48.222;16.342;2023-03-01T00:28:41;44.93;;;33.47;;
17169;SDS011;8700;48.222;16.342;2023-03-01T00:32:03;45.07;;;33.50;;
17169;SDS011;8700;48.222;16.342;2023-03-01T00:35:24;40.97;;;32.00;;
17169;SDS011;8700;48.222;16.342;2023-03-01T00:38:46;46.43;;;34.53;;
17169;SDS011;8700;48.222;16.342;2023-03-01T00:42:08;42.17;;;32.83;;
17169;SDS011;8700;48.222;16.342;2023-03-01T00:45:30;45.47;;;33.57;;
17169;SDS011;8700;48.222;16.342;2023-03-01T00:48:51;41.27;;;34.47;;
17169;SDS011;8700;48.222;16.342;2023-03-01T00:52:12;38.70;;;34.00;;
17169;SDS011;8700;48.222;16.342;2023-03-01T00:55:33;41.23;;;34.30;;
17169;SDS011;8700;48.222;16.342;2023-03-01T00:58:58;44.37;;;33.23;;
17169;SDS011;8700;48.222;16.342;2023-03-01T01:02:19;42.47;;;33.47;;
17169;SDS011;8700;48.222;16.342;2023-03-01T01:05:41;44.97;;;34.33;;
17169;SDS011;8700;48.222;16.342;2023-03-01T01:09:02;43.17;;;32.80;;
17169;SDS011;8700;48.222;16.342;2023-03-01T01:12:25;46.80;;;34.10;;
17169;SDS011;8700;48.222;16.342;2023-03-01T01:15:48;41.40;;;33.17;;
17169;SDS011;8700;48.222;16.342;2023-03-01T01:19:09;45.03;;;34.13;;
17169;SDS011;8700;48.222;16.342;2023-03-01T01:22:31;43.47;;;33.63;;
17169;SDS011;8700;48.222;16.342;2023-03-01T01:25:52;40.30;;;32.90;;
17169;SDS011;8700;48.222;16.342;2023-03-01T01:29:13;45.53;;;34.77;;
17169;SDS011;8700;48.222;16.342;2023-03-01T01:32:36;42.90;;;34.70;;
17169;SDS011;8700;48.222;16.342;2023-03-01T01:35:57;44.77;;;35.07;;
17169;SDS011;8700;48.222;16.342;2023-03-01T01:39:19;46.10;;;36.00;;
17169;SDS011;8700;48.222;16.342;2023-03-01T01:42:40;37.93;;;32.27;;
17169;SDS011;8700;48.222;16.342;2023-03-01T01:46:01;42.90;;;34.10;;
17169;SDS011;8700;48.222;16.342;2023-03-01T01:49:28;47.73;;;34.87;;
17169;SDS011;8700;48.222;16.342;2023-03-01T01:52:53;42.67;;;34.20;;
17169;SDS011;8700;48.222;16.342;2023-03-01T01:56:15;45.10;;;35.57;;
17169;SDS011;8700;48.222;16.342;2023-03-01T01:59:37;44.17;;;35.33;;
17169;SDS011;8700;48.222;16.342;2023-03-01T02:03:03;43.30;;;36.10;;
17169;SDS011;8700;48.222;16.342;2023-03-01T02:06:29;49.63;;;37.57;;
17169;SDS011;8700;48.222;16.342;2023-03-01T02:09:54;44.23;;;35.33;;
17169;SDS011;8700;48.222;16.342;2023-03-01T02:13:15;44.87;;;34.53;;
17169;SDS011;8700;48.222;16.342;2023-03-01T02:16:36;43.03;;;34.77;;
17169;SDS011;8700;48.222;16.342;2023-03-01T02:20:02;47.53;;;35.97;;
17169;SDS011;8700;48.222;16.342;2023-03-01T02:23:32;43.87;;;35.60;;
17169;SDS011;8700;48.222;16.342;2023-03-01T02:26:56;45.90;;;34.40;;
17169;SDS011;8700;48.222;16.342;2023-03-01T02:30:19;43.83;;;35.10;;
17169;SDS011;8700;48.222;16.342;2023-03-01T02:33:42;45.13;;;36.10;;
17169;SDS011;8700;48.222;16.342;2023-03-01T02:37:06;40.83;;;33.53;;
17169;SDS011;8700;48.222;16.342;2023-03-01T02:40:34;45.27;;;36.10;;
17169;SDS011;8700;48.222;16.342;2023-03-01T02:43:58;45.40;;;34.20;;
17169;SDS011;8700;48.222;16.342;2023-03-01T02:47:21;45.90;;;36.03;;
17169;SDS011;8700;48.222;16.342;2023-03-01T02:50:51;48.43;;;36.13;;
17169;SDS011;8700;48.222;16.342;2023-03-01T02:54:22;49.43;;;36.90;;
17169;SDS011;8700;48.222;16.342;2023-03-01T02:57:48;45.27;;;35.57;;
17169;SDS011;8700;48.222;16.342;2023-03-01T03:01:10;45.63;;;36.20;;
17169;SDS011;8700;48.222;16.342;2023-03-01T03:04:34;48.30;;;36.50;;
17169;SDS011;8700;48.222;16.342;2023-03-01T03:07:55;46.53;;;36.23;;
17169;SDS011;8700;48.222;16.342;2023-03-01T03:11:17;46.27;;;35.83;;
17169;SDS011;8700;48.222;16.342;2023-03-01T03:14:40;44.67;;;36.33;;
17169;SDS011;8700;48.222;16.342;2023-03-01T03:18:01;43.37;;;33.93;;
17169;SDS011;8700;48.222;16.342;2023-03-01T03:21:25;49.40;;;37.47;;
17169;SDS011;8700;48.222;16.342;2023-03-01T03:24:46;48.73;;;37.30;;
17169;SDS011;8700;48.222;16.342;2023-03-01T03:28:08;51.80;;;38.50;;
17169;SDS011;8700;48.222;16.342;2023-03-01T03:31:29;53.30;;;36.80;;
17169;SDS011;8700;48.222;16.342;2023-03-01T03:34:51;50.13;;;37.57;;
17169;SDS011;8700;48.222;16.342;2023-03-01T03:38:19;49.37;;;38.17;;
17169;SDS011;8700;48.222;16.342;2023-03-01T03:41:44;45.30;;;36.30;;
17169;SDS011;8700;48.222;16.342;2023-03-01T03:45:05;46.70;;;36.80;;
17169;SDS011;8700;48.222;16.342;2023-03-01T03:48:28;48.27;;;37.50;;
17169;SDS011;8700;48.222;16.342;2023-03-01T03:51:49;50.87;;;36.53;;
17169;SDS011;8700;48.222;16.342;2023-03-01T03:55:12;44.43;;;34.83;;
17169;SDS011;8700;48.222;16.342;2023-03-01T03:58:33;49.70;;;37.90;;
17169;SDS011;8700;48.222;16.342;2023-03-01T04:01:55;48.27;;;36.43;;
17169;SDS011;8700;48.222;16.342;2023-03-01T04:05:16;45.60;;;35.93;;
17169;SDS011;8700;48.222;16.342;2023-03-01T04:08:39;49.37;;;35.53;;
17169;SDS011;8700;48.222;16.342;2023-03-01T04:12:02;46.23;;;36.03;;
17169;SDS011;8700;48.222;16.342;2023-03-01T04:15:24;49.77;;;36.70;;
17169;SDS011;8700;48.222;16.342;2023-03-01T04:18:46;49.23;;;36.67;;
17169;SDS011;8700;48.222;16.342;2023-03-01T04:22:07;54.63;;;39.07;;
17169;SDS011;8700;48.222;16.342;2023-03-01T04:25:32;49.27;;;38.57;;
17169;SDS011;8700;48.222;16.342;2023-03-01T04:28:55;52.40;;;39.33;;
17169;SDS011;8700;48.222;16.342;2023-03-01T04:32:16;47.73;;;37.97;;
17169;SDS011;8700;48.222;16.342;2023-03-01T04:35:37;48.73;;;38.77;;
17169;SDS011;8700;48.222;16.342;2023-03-01T04:38:59;53.20;;;37.57;;
17169;SDS011;8700;48.222;16.342;2023-03-01T04:42:31;50.20;;;37.27;;
17169;SDS011;8700;48.222;16.342;2023-03-01T04:45:54;44.40;;;36.73;;
17169;SDS011;8700;48.222;16.342;2023-03-01T04:49:22;50.83;;;37.37;;
17169;SDS011;8700;48.222;16.342;2023-03-01T04:52:43;46.17;;;36.03;;
17169;SDS011;8700;48.222;16.342;2023-03-01T04:56:05;49.20;;;38.93;;
17169;SDS011;8700;48.222;16.342;2023-03-01T04:59:27;56.47;;;39.03;;
17169;SDS011;8700;48.222;16.342;2023-03-01T05:02:52;55.03;;;39.23;;
17169;SDS011;8700;48.222;16.342;2023-03-01T05:06:14;48.90;;;37.90;;
17169;SDS011;8700;48.222;16.342;2023-03-01T05:09:37;52.50;;;39.13;;
17169;SDS011;8700;48.222;16.342;2023-03-01T05:12:58;49.67;;;38.90;;
17169;SDS011;8700;48.222;16.342;2023-03-01T05:16:20;46.60;;;35.57;;
17169;SDS011;8700;48.222;16.342;2023-03-01T05:19:42;48.97;;;39.27;;
17169;SDS011;8700;48.222;16.342;2023-03-01T05:23:07;51.40;;;40.00;;
17169;SDS011;8700;48.222;16.342;2023-03-01T05:26:28;54.23;;;40.87;;
17169;SDS011;8700;48.222;16.342;2023-03-01T05:29:49;48.70;;;37.53;;
17169;SDS011;8700;48.222;16.342;2023-03-01T05:33:11;49.10;;;38.80;;
17169;SDS011;8700;48.222;16.342;2023-03-01T05:36:35;55.57;;;41.13;;
17169;SDS011;8700;48.222;16.342;2023-03-01T05:39:57;50.33;;;37.93;;
17169;SDS011;8700;48.222;16.342;2023-03-01T05:43:19;47.63;;;39.17;;
17169;SDS011;8700;48.222;16.342;2023-03-01T05:46:40;50.00;;;38.63;;
17169;SDS011;8700;48.222;16.342;2023-03-01T05:50:01;46.17;;;37.43;;
17169;SDS011;8700;48.222;16.342;2023-03-01T05:53:23;47.87;;;36.83;;
17169;SDS011;8700;48.222;16.342;2023-03-01T05:56:46;49.20;;;35.17;;
17169;SDS011;8700;48.222;16.342;2023-03-01T06:00:07;51.73;;;34.97;;
17169;SDS011;8700;48.222;16.342;2023-03-01T06:03:31;52.97;;;39.53;;
17169;SDS011;8700;48.222;16.342;2023-03-01T06:06:52;49.57;;;39.90;;
17169;SDS011;8700;48.222;16.342;2023-03-01T06:10:15;50.37;;;38.83;;
17169;SDS011;8700;48.222;16.342;2023-03-01T06:13:37;48.67;;;38.27;;
17169;SDS011;8700;48.222;16.342;2023-03-01T06:16:58;50.23;;;38.73;;
17169;SDS011;8700;48.222;16.342;2023-03-01T06:20:20;50.83;;;39.63;;
17169;SDS011;8700;48.222;16.342;2023-03-01T06:23:44;45.13;;;37.93;;
17169;SDS011;8700;48.222;16.342;2023-03-01T06:27:06;47.77;;;37.70;;
17169;SDS011;8700;48.222;16.342;2023-03-01T06:30:27;48.27;;;37.77;;
17169;SDS011;8700;48.222;16.342;2023-03-01T06:33:49;50.23;;;39.67;;
17169;SDS011;8700;48.222;16.342;2023-03-01T06:37:11;50.83;;;38.77;;
17169;SDS011;8700;48.222;16.342;2023-03-01T06:40:32;48.97;;;38.50;;
17169;SDS011;8700;48.222;16.342;2023-03-01T06:43:56;48.47;;;37.70;;
17169;SDS011;8700;48.222;16.342;2023-03-01T06:47:17;46.53;;;37.33;;
17169;SDS011;8700;48.222;16.342;2023-03-01T06:50:38;46.53;;;38.10;;
17169;SDS011;8700;48.222;16.342;2023-03-01T06:53:59;53.23;;;40.43;;
17169;SDS011;8700;48.222;16.342;2023-03-01T06:57:21;43.63;;;36.23;;
17169;SDS011;8700;48.222;16.342;2023-03-01T07:00:44;53.53;;;39.27;;
17169;SDS011;8700;48.222;16.342;2023-03-01T07:04:05;46.93;;;37.33;;
17169;SDS011;8700;48.222;16.342;2023-03-01T07:07:26;47.77;;;37.37;;
17169;SDS011;8700;48.222;16.342;2023-03-01T07:10:48;54.27;;;36.83;;
17169;SDS011;8700;48.222;16.342;2023-03-01T07:14:14;53.77;;;36.77;;
17169;SDS011;8700;48.222;16.342;2023-03-01T07:17:37;47.87;;;35.60;;
17169;SDS011;8700;48.222;16.342;2023-03-01T07:20:58;46.50;;;37.10;;
17169;SDS011;8700;48.222;16.342;2023-03-01T07:24:25;51.00;;;36.60;;
17169;SDS011;8700;48.222;16.342;2023-03-01T07:27:48;47.93;;;38.23;;
17169;SDS011;8700;48.222;16.342;2023-03-01T07:31:10;50.70;;;39.87;;
17169;SDS011;8700;48.222;16.342;2023-03-01T07:34:33;50.03;;;38.03;;
17169;SDS011;8700;48.222;16.342;2023-03-01T07:37:54;52.37;;;40.60;;
17169;SDS011;8700;48.222;16.342;2023-03-01T07:41:16;49.43;;;40.00;;
17169;SDS011;8700;48.222;16.342;2023-03-01T07:44:38;50.00;;;40.47;;
17169;SDS011;8700;48.222;16.342;2023-03-01T07:47:59;47.83;;;39.30;;
17169;SDS011;8700;48.222;16.342;2023-03-01T07:51:21;47.40;;;40.23;;
17169;SDS011;8700;48.222;16.342;2023-03-01T07:54:43;51.83;;;40.57;;
17169;SDS011;8700;48.222;16.342;2023-03-01T07:58:04;51.73;;;41.37;;
17169;SDS011;8700;48.222;16.342;2023-03-01T08:01:25;54.70;;;44.03;;
17169;SDS011;8700;48.222;16.342;2023-03-01T08:04:49;50.10;;;39.47;;
17169;SDS011;8700;48.222;16.342;2023-03-01T08:08:11;53.17;;;40.53;;
17169;SDS011;8700;48.222;16.342;2023-03-01T08:11:32;47.73;;;40.27;;
17169;SDS011;8700;48.222;16.342;2023-03-01T08:14:54;49.97;;;40.47;;
17169;SDS011;8700;48.222;16.342;2023-03-01T08:18:21;50.83;;;39.67;;
17169;SDS011;8700;48.222;16.342;2023-03-01T08:21:42;55.70;;;42.90;;
17169;SDS011;8700;48.222;16.342;2023-03-01T08:25:05;50.30;;;40.03;;
17169;SDS011;8700;48.222;16.342;2023-03-01T08:28:26;49.87;;;40.80;;
17169;SDS011;8700;48.222;16.342;2023-03-01T08:31:48;49.20;;;41.67;;
17169;SDS011;8700;48.222;16.342;2023-03-01T08:35:09;49.13;;;39.77;;
17169;SDS011;8700;48.222;16.342;2023-03-01T08:38:30;46.93;;;40.87;;
17169;SDS011;8700;48.222;16.342;2023-03-01T08:41:53;48.17;;;40.57;;
17169;SDS011;8700;48.222;16.342;2023-03-01T08:45:14;46.40;;;39.67;;
17169;SDS011;8700;48.222;16.342;2023-03-01T08:48:37;56.83;;;41.17;;
17169;SDS011;8700;48.222;16.342;2023-03-01T08:51:59;48.27;;;40.47;;
17169;SDS011;8700;48.222;16.342;2023-03-01T08:55:20;46.70;;;40.30;;
17169;SDS011;8700;48.222;16.342;2023-03-01T08:58:44;46.50;;;37.90;;
17169;SDS011;8700;48.222;16.342;2023-03-01T09:02:08;49.33;;;39.30;;
17169;SDS011;8700;48.222;16.342;2023-03-01T09:05:32;47.90;;;39.60;;
17169;SDS011;8700;48.222;16.342;2023-03-01T09:08:56;45.50;;;39.07;;
17169;SDS011;8700;48.222;16.342;2023-03-01T09:12:17;48.87;;;39.27;;
17169;SDS011;8700;48.222;16.342;2023-03-01T09:15:40;47.63;;;39.57;;
17169;SDS011;8700;48.222;16.342;2023-03-01T09:19:01;48.77;;;40.70;;
17169;SDS011;8700;48.222;16.342;2023-03-01T09:22:23;48.67;;;40.43;;
17169;SDS011;8700;48.222;16.342;2023-03-01T09:25:44;46.90;;;38.30;;
17169;SDS011;8700;48.222;16.342;2023-03-01T09:29:06;42.57;;;37.47;;
17169;SDS011;8700;48.222;16.342;2023-03-01T09:32:31;44.47;;;37.57;;
17169;SDS011;8700;48.222;16.342;2023-03-01T09:35:55;54.93;;;48.47;;
17169;SDS011;8700;48.222;16.342;2023-03-01T09:39:17;42.73;;;38.13;;
17169;SDS011;8700;48.222;16.342;2023-03-01T09:42:44;44.57;;;38.40;;
17169;SDS011;8700;48.222;16.342;2023-03-01T09:46:09;43.10;;;36.57;;
17169;SDS011;8700;48.222;16.342;2023-03-01T09:49:38;44.23;;;36.77;;
17169;SDS011;8700;48.222;16.342;2023-03-01T09:53:09;41.63;;;34.80;;
17169;SDS011;8700;48.222;16.342;2023-03-01T09:56:34;38.17;;;32.10;;
17169;SDS011;8700;48.222;16.342;2023-03-01T10:00:02;38.67;;;34.50;;
17169;SDS011;8700;48.222;16.342;2023-03-01T10:03:39;42.37;;;35.17;;
17169;SDS011;8700;48.222;16.342;2023-03-01T10:07:12;38.43;;;34.47;;
17169;SDS011;8700;48.222;16.342;2023-03-01T10:10:40;42.53;;;36.47;;
17169;SDS011;8700;48.222;16.342;2023-03-01T10:14:06;41.40;;;37.00;;
17169;SDS011;8700;48.222;16.342;2023-03-01T10:17:39;40.40;;;33.43;;
17169;SDS011;8700;48.222;16.342;2023-03-01T10:21:11;38.17;;;33.97;;
17169;SDS011;8700;48.222;16.342;2023-03-01T10:24:37;43.20;;;35.07;;
17169;SDS011;8700;48.222;16.342;2023-03-01T10:28:00;39.13;;;34.90;;
17169;SDS011;8700;48.222;16.342;2023-03-01T10:31:30;41.60;;;36.67;;
17169;SDS011;8700;48.222;16.342;2023-03-01T10:34:58;44.80;;;38.13;;
17169;SDS011;8700;48.222;16.342;2023-03-01T10:38:19;37.37;;;32.67;;
17169;SDS011;8700;48.222;16.342;2023-03-01T10:41:51;33.38;;;29.80;;
17169;SDS011;8700;48.222;16.342;2023-03-01T10:45:17;31.05;;;27.90;;
17169;SDS011;8700;48.222;16.342;2023-03-01T10:49:04;28.88;;;26.05;;
17169;SDS011;8700;48.222;16.342;2023-03-01T10:52:29;27.80;;;25.00;;
17169;SDS011;8700;48.222;16.342;2023-03-01T10:55:56;30.30;;;26.23;;
17169;SDS011;8700;48.222;16.342;2023-03-01T10:59:22;29.27;;;26.33;;
17169;SDS011;8700;48.222;16.342;2023-03-01T11:02:48;35.63;;;31.70;;
17169;SDS011;8700;48.222;16.342;2023-03-01T11:06:20;29.70;;;26.50;;
17169;SDS011;8700;48.222;16.342;2023-03-01T11:09:44;30.45;;;27.20;;
17169;SDS011;8700;48.222;16.342;2023-03-01T11:13:05;33.10;;;29.77;;
17169;SDS011;8700;48.222;16.342;2023-03-01T11:16:31;33.22;;;27.88;;
17169;SDS011;8700;48.222;16.342;2023-03-01T11:20:00;33.10;;;28.60;;
17169;SDS011;8700;48.222;16.342;2023-03-01T11:23:24;40.20;;;33.47;;
17169;SDS011;8700;48.222;16.342;2023-03-01T11:26:50;36.78;;;32.92;;
17169;SDS011;8700;48.222;16.342;2023-03-01T11:30:15;38.17;;;34.15;;
17169;SDS011;8700;48.222;16.342;2023-03-01T11:33:43;38.30;;;34.30;;
17169;SDS011;8700;48.222;16.342;2023-03-01T11:37:11;33.37;;;30.07;;
17169;SDS011;8700;48.222;16.342;2023-03-01T11:40:43;35.07;;;31.27;;
17169;SDS011;8700;48.222;16.342;2023-03-01T11:44:11;35.43;;;29.93;;
17169;SDS011;8700;48.222;16.342;2023-03-01T11:51:40;34.27;;;30.33;;
17169;SDS011;8700;48.222;16.342;2023-03-01T11:55:12;35.40;;;31.70;;
17169;SDS011;8700;48.222;16.342;2023-03-01T11:58:59;34.77;;;31.17;;
17169;SDS011;8700;48.222;16.342;2023-03-01T12:02:48;32.37;;;28.60;;
17169;SDS011;8700;48.222;16.342;2023-03-01T12:06:48;32.63;;;29.13;;
17169;SDS011;8700;48.222;16.342;2023-03-01T12:10:23;32.77;;;29.07;;
17169;SDS011;8700;48.222;16.342;2023-03-01T12:13:51;31.17;;;27.90;;
17169;SDS011;8700;48.222;16.342;2023-03-01T12:17:29;31.93;;;27.20;;
17169;SDS011;8700;48.222;16.342;2023-03-01T12:21:11;33.00;;;29.60;;
17169;SDS011;8700;48.222;16.342;2023-03-01T12:24:46;32.30;;;28.87;;
17169;SDS011;8700;48.222;16.342;2023-03-01T12:28:53;33.87;;;29.00;;
17169;SDS011;8700;48.222;16.342;2023-03-01T12:32:35;33.50;;;29.43;;
17169;SDS011;8700;48.222;16.342;2023-03-01T12:36:12;30.60;;;27.27;;
17169;SDS011;8700;48.222;16.342;2023-03-01T12:39:47;30.05;;;26.95;;
17169;SDS011;8700;48.222;16.342;2023-03-01T12:43:24;26.80;;;23.87;;
17169;SDS011;8700;48.222;16.342;2023-03-01T12:46:58;30.60;;;26.90;;
17169;SDS011;8700;48.222;16.342;2023-03-01T12:50:29;31.70;;;28.30;;
17169;SDS011;8700;48.222;16.342;2023-03-01T12:53:59;31.37;;;28.23;;
17169;SDS011;8700;48.222;16.342;2023-03-01T12:57:28;31.73;;;28.43;;
17169;SDS011;8700;48.222;16.342;2023-03-01T13:01:04;29.60;;;26.53;;
17169;SDS011;8700;48.222;16.342;2023-03-01T13:04:37;31.70;;;28.13;;
17169;SDS011;8700;48.222;16.342;2023-03-01T13:08:12;30.58;;;27.48;;
17169;SDS011;8700;48.222;16.342;2023-03-01T13:11:41;30.77;;;27.57;;
17169;SDS011;8700;48.222;16.342;2023-03-01T13:15:13;32.17;;;28.80;;
17169;SDS011;8700;48.222;16.342;2023-03-01T13:18:49;28.43;;;24.67;;
17169;SDS011;8700;48.222;16.342;2023-03-01T13:22:31;31.83;;;26.67;;
17169;SDS011;8700;48.222;16.342;2023-03-01T13:26:01;31.80;;;28.53;;
17169;SDS011;8700;48.222;16.342;2023-03-01T13:29:25;32.22;;;28.92;;
17169;SDS011;8700;48.222;16.342;2023-03-01T13:32:48;32.43;;;29.10;;
17169;SDS011;8700;48.222;16.342;2023-03-01T13:36:10;32.97;;;28.30;;
17169;SDS011;8700;48.222;16.342;2023-03-01T13:39:53;29.75;;;26.65;;
17169;SDS011;8700;48.222;16.342;2023-03-01T13:43:25;30.50;;;27.27;;
17169;SDS011;8700;48.222;16.342;2023-03-01T13:46:49;31.13;;;26.65;;
17169;SDS011;8700;48.222;16.342;2023-03-01T13:50:20;28.77;;;25.77;;
17169;SDS011;8700;48.222;16.342;2023-03-01T13:53:44;31.47;;;27.20;;
17169;SDS011;8700;48.222;16.342;2023-03-01T13:57:12;28.97;;;25.83;;
17169;SDS011;8700;48.222;16.342;2023-03-01T14:00:43;33.57;;;29.93;;
17169;SDS011;8700;48.222;16.342;2023-03-01T14:04:17;31.60;;;28.30;;
17169;SDS011;8700;48.222;16.342;2023-03-01T14:07:42;35.60;;;30.40;;
17169;SDS011;8700;48.222;16.342;2023-03-01T14:11:13;32.10;;;28.17;;
17169;SDS011;8700;48.222;16.342;2023-03-01T14:14:50;35.20;;;29.07;;
17169;SDS011;8700;48.222;16.342;2023-03-01T14:18:16;31.03;;;27.67;;
17169;SDS011;8700;48.222;16.342;2023-03-01T14:21:43;31.13;;;27.77;;
17169;SDS011;8700;48.222;16.342;2023-03-01T14:25:16;33.97;;;30.03;;
17169;SDS011;8700;48.222;16.342;2023-03-01T14:28:41;32.27;;;28.90;;
17169;SDS011;8700;48.222;16.342;2023-03-01T14:32:10;31.57;;;28.20;;
17169;SDS011;8700;48.222;16.342;2023-03-01T14:35:34;32.83;;;29.17;;
17169;SDS011;8700;48.222;16.342;2023-03-01T14:38:56;34.30;;;30.63;;
17169;SDS011;8700;48.222;16.342;2023-03-01T14:42:26;34.07;;;30.57;;
17169;SDS011;8700;48.222;16.342;2023-03-01T14:45:51;34.53;;;29.97;;
17169;SDS011;8700;48.222;16.342;2023-03-01T14:49:13;32.03;;;28.43;;
17169;SDS011;8700;48.222;16.342;2023-03-01T14:52:37;34.17;;;29.97;;
17169;SDS011;8700;48.222;16.342;2023-03-01T14:56:02;32.70;;;28.77;;
17169;SDS011;8700;48.222;16.342;2023-03-01T14:59:25;43.67;;;37.23;;
17169;SDS011;8700;48.222;16.342;2023-03-01T15:02:47;30.93;;;27.63;;
17169;SDS011;8700;48.222;16.342;2023-03-01T15:06:10;31.20;;;26.30;;
17169;SDS011;8700;48.222;16.342;2023-03-01T15:09:35;33.20;;;27.37;;
17169;SDS011;8700;48.222;16.342;2023-03-01T15:13:09;30.80;;;27.47;;
17169;SDS011;8700;48.222;16.342;2023-03-01T15:16:33;34.13;;;30.43;;
17169;SDS011;8700;48.222;16.342;2023-03-01T15:20:00;30.43;;;27.10;;
17169;SDS011;8700;48.222;16.342;2023-03-01T15:23:24;34.97;;;29.57;;
17169;SDS011;8700;48.222;16.342;2023-03-01T15:26:50;33.53;;;29.50;;
17169;SDS011;8700;48.222;16.342;2023-03-01T15:30:17;33.00;;;29.53;;
17169;SDS011;8700;48.222;16.342;2023-03-01T15:33:42;32.57;;;29.07;;
17169;SDS011;8700;48.222;16.342;2023-03-01T15:37:36;31.43;;;28.03;;
17169;SDS011;8700;48.222;16.342;2023-03-01T15:40:59;35.73;;;28.50;;
17169;SDS011;8700;48.222;16.342;2023-03-01T15:44:25;30.83;;;27.50;;
17169;SDS011;8700;48.222;16.342;2023-03-01T15:47:48;33.57;;;28.37;;
17169;SDS011;8700;48.222;16.342;2023-03-01T15:51:12;38.53;;;29.10;;
17169;SDS011;8700;48.222;16.342;2023-03-01T15:54:34;31.87;;;24.37;;
17169;SDS011;8700;48.222;16.342;2023-03-01T15:57:58;34.67;;;28.07;;
17169;SDS011;8700;48.222;16.342;2023-03-01T16:01:21;36.33;;;28.20;;
17169;SDS011;8700;48.222;16.342;2023-03-01T16:04:42;33.17;;;28.33;;
17169;SDS011;8700;48.222;16.342;2023-03-01T16:08:05;32.37;;;28.20;;
17169;SDS011;8700;48.222;16.342;2023-03-01T16:11:28;32.53;;;27.93;;
17169;SDS011;8700;48.222;16.342;2023-03-01T16:14:49;31.47;;;26.97;;
17169;SDS011;8700;48.222;16.342;2023-03-01T16:18:13;30.87;;;26.93;;
17169;SDS011;8700;48.222;16.342;2023-03-01T16:21:34;34.73;;;28.07;;
17169;SDS011;8700;48.222;16.342;2023-03-01T16:24:57;37.80;;;29.50;;
17169;SDS011;8700;48.222;16.342;2023-03-01T16:28:18;32.73;;;25.83;;
17169;SDS011;8700;48.222;16.342;2023-03-01T16:31:39;32.33;;;28.17;;
17169;SDS011;8700;48.222;16.342;2023-03-01T16:35:00;32.80;;;27.23;;
17169;SDS011;8700;48.222;16.342;2023-03-01T16:38:22;41.17;;;34.70;;
17169;SDS011;8700;48.222;16.342;2023-03-01T16:41:45;50.17;;;39.83;;
17169;SDS011;8700;48.222;16.342;2023-03-01T16:45:08;37.83;;;32.40;;
17169;SDS011;8700;48.222;16.342;2023-03-01T16:48:30;32.00;;;27.90;;
17169;SDS011;8700;48.222;16.342;2023-03-01T16:51:52;32.77;;;29.27;;
17169;SDS011;8700;48.222;16.342;2023-03-01T16:55:14;41.97;;;36.27;;
17169;SDS011;8700;48.222;16.342;2023-03-01T16:58:37;37.57;;;32.37;;
17169;SDS011;8700;48.222;16.342;2023-03-01T17:01:59;41.27;;;36.50;;
17169;SDS011;8700;48.222;16.342;2023-03-01T17:05:21;44.63;;;39.77;;
17169;SDS011;8700;48.222;16.342;2023-03-01T17:08:43;44.13;;;37.10;;
17169;SDS011;8700;48.222;16.342;2023-03-01T17:12:05;49.13;;;44.17;;
17169;SDS011;8700;48.222;16.342;2023-03-01T17:15:27;39.40;;;35.13;;
17169;SDS011;8700;48.222;16.342;2023-03-01T17:18:49;37.30;;;33.23;;
17169;SDS011;8700;48.222;16.342;2023-03-01T17:22:10;36.90;;;32.50;;
17169;SDS011;8700;48.222;16.342;2023-03-01T17:25:33;37.33;;;33.40;;
17169;SDS011;8700;48.222;16.342;2023-03-01T17:28:54;38.00;;;31.80;;
17169;SDS011;8700;48.222;16.342;2023-03-01T17:32:18;36.53;;;30.83;;
17169;SDS011;8700;48.222;16.342;2023-03-01T17:35:40;37.40;;;32.17;;
17169;SDS011;8700;48.222;16.342;2023-03-01T17:39:01;34.47;;;30.43;;
17169;SDS011;8700;48.222;16.342;2023-03-01T17:42:22;39.27;;;34.33;;
17169;SDS011;8700;48.222;16.342;2023-03-01T17:45:44;37.07;;;32.53;;
17169;SDS011;8700;48.222;16.342;2023-03-01T17:49:10;44.10;;;33.17;;
17169;SDS011;8700;48.222;16.342;2023-03-01T17:52:31;35.00;;;31.23;;
17169;SDS011;8700;48.222;16.342;2023-03-01T17:55:58;39.83;;;34.97;;
17169;SDS011;8700;48.222;16.342;2023-03-01T17:59:20;39.43;;;33.87;;
17169;SDS011;8700;48.222;16.342;2023-03-01T18:02:41;40.83;;;34.17;;
17169;SDS011;8700;48.222;16.342;2023-03-01T18:06:10;37.90;;;33.50;;
17169;SDS011;8700;48.222;16.342;2023-03-01T18:09:32;38.37;;;32.93;;
17169;SDS011;8700;48.222;16.342;2023-03-01T18:12:53;38.57;;;34.40;;
17169;SDS011;8700;48.222;16.342;2023-03-01T18:16:15;47.40;;;38.33;;
17169;SDS011;8700;48.222;16.342;2023-03-01T18:19:37;45.97;;;38.90;;
17169;SDS011;8700;48.222;16.342;2023-03-01T18:23:01;43.53;;;37.47;;
17169;SDS011;8700;48.222;16.342;2023-03-01T18:26:27;47.07;;;37.53;;
17169;SDS011;8700;48.222;16.342;2023-03-01T18:29:50;41.63;;;36.93;;
17169;SDS011;8700;48.222;16.342;2023-03-01T18:33:11;51.57;;;43.13;;
17169;SDS011;8700;48.222;16.342;2023-03-01T18:36:33;50.10;;;42.13;;
17169;SDS011;8700;48.222;16.342;2023-03-01T18:39:56;54.50;;;43.60;;
17169;SDS011;8700;48.222;16.342;2023-03-01T18:43:18;47.80;;;41.43;;
17169;SDS011;8700;48.222;16.342;2023-03-01T18:46:40;51.60;;;42.37;;
17169;SDS011;8700;48.222;16.342;2023-03-01T18:50:05;49.50;;;40.50;;
17169;SDS011;8700;48.222;16.342;2023-03-01T18:53:26;45.60;;;39.33;;
17169;SDS011;8700;48.222;16.342;2023-03-01T18:56:49;49.70;;;38.87;;
17169;SDS011;8700;48.222;16.342;2023-03-01T19:00:11;44.47;;;37.13;;
17169;SDS011;8700;48.222;16.342;2023-03-01T19:03:33;44.90;;;37.53;;
17169;SDS011;8700;48.222;16.342;2023-03-01T19:06:55;43.10;;;36.57;;
17169;SDS011;8700;48.222;16.342;2023-03-01T19:10:20;40.37;;;34.77;;
17169;SDS011;8700;48.222;16.342;2023-03-01T19:13:43;39.90;;;34.83;;
17169;SDS011;8700;48.222;16.342;2023-03-01T19:17:05;41.23;;;36.03;;
17169;SDS011;8700;48.222;16.342;2023-03-01T19:20:26;42.07;;;36.07;;
17169;SDS011;8700;48.222;16.342;2023-03-01T19:23:48;40.33;;;34.70;;
17169;SDS011;8700;48.222;16.342;2023-03-01T19:27:09;43.33;;;33.47;;
17169;SDS011;8700;48.222;16.342;2023-03-01T19:30:32;46.27;;;35.13;;
17169;SDS011;8700;48.222;16.342;2023-03-01T19:33:53;40.80;;;34.23;;
17169;SDS011;8700;48.222;16.342;2023-03-01T19:37:16;40.57;;;33.90;;
17169;SDS011;8700;48.222;16.342;2023-03-01T19:40:37;47.57;;;37.00;;
17169;SDS011;8700;48.222;16.342;2023-03-01T19:43:59;41.13;;;35.30;;
17169;SDS011;8700;48.222;16.342;2023-03-01T19:47:25;44.43;;;36.67;;
17169;SDS011;8700;48.222;16.342;2023-03-01T19:50:46;52.00;;;38.60;;
17169;SDS011;8700;48.222;16.342;2023-03-01T19:54:10;46.13;;;38.83;;
17169;SDS011;8700;48.222;16.342;2023-03-01T19:57:33;49.93;;;38.23;;
17169;SDS011;8700;48.222;16.342;2023-03-01T20:00:54;46.03;;;38.63;;
17169;SDS011;8700;48.222;16.342;2023-03-01T20:04:18;44.63;;;38.03;;
17169;SDS011;8700;48.222;16.342;2023-03-01T20:07:39;46.53;;;39.50;;